Time;durP1;ratioP1;P1;durP2;ratioP2;P2;SDS_P1;SDS_P2;PMS_P1;PMS_P2;Temp;Humidity;BMP_temperature;BMP_pressure;BME280_temperature;BME280_humidity;BME280_pressure;Samples;Min_cycle;Max_cycle;Signal;HPM_P1;HPM_P2
2022/12/03 00:00:59;;;;;;;2.25;1.70;;;20.80;47.80;;;;;;5088618;28;20674;-58
2022/12/03 00:03:30;;;;;;;2.55;1.92;;;20.80;47.70;;;;;;5091445;28;20198;-55
2022/12/03 00:06:00;;;;;;;2.47;1.38;;;20.90;47.70;;;;;;5091524;28;20218;-59
2022/12/03 00:08:31;;;;;;;2.38;1.55;;;20.90;47.60;;;;;;5091607;28;20194;-52
2022/12/03 00:11:02;;;;;;;2.03;1.38;;;20.90;47.60;;;;;;5091356;28;20198;-59
2022/12/03 00:13:32;;;;;;;2.17;1.40;;;20.90;47.60;;;;;;5090863;28;20186;-59
2022/12/03 00:16:05;;;;;;;3.08;1.60;;;20.90;47.60;;;;;;5090969;28;20564;-59
2022/12/03 00:18:36;;;;;;;3.25;1.40;;;20.90;47.90;;;;;;5091427;28;20186;-60
2022/12/03 00:21:07;;;;;;;1.92;1.45;;;20.90;47.60;;;;;;5091900;28;20204;-59
2022/12/03 00:23:37;;;;;;;3.28;1.50;;;20.90;47.60;;;;;;5091383;28;20198;-54
2022/12/03 00:26:08;;;;;;;2.00;1.40;;;21.00;47.60;;;;;;5090763;28;20222;-60
2022/12/03 00:28:39;;;;;;;2.50;1.30;;;21.00;47.60;;;;;;5091006;28;20198;-57
2022/12/03 00:31:11;;;;;;;1.25;1.15;;;21.00;47.50;;;;;;5091317;28;20225;-59
2022/12/03 00:33:42;;;;;;;2.47;1.52;;;21.00;47.50;;;;;;5088613;28;20193;-58
2022/12/03 00:36:13;;;;;;;3.03;1.35;;;21.10;47.50;;;;;;5090333;28;20221;-58
2022/12/03 00:38:44;;;;;;;2.30;1.35;;;21.10;47.40;;;;;;5090398;28;20190;-58
2022/12/03 00:41:18;;;;;;;2.63;1.40;;;21.10;47.40;;;;;;5090649;28;20209;-54
2022/12/03 00:43:50;;;;;;;2.42;1.60;;;21.10;47.40;;;;;;5090839;28;20742;-59
2022/12/03 00:46:22;;;;;;;2.33;1.40;;;21.10;47.40;;;;;;5091835;28;20233;-58
2022/12/03 00:48:53;;;;;;;2.55;1.40;;;21.10;47.40;;;;;;5091340;28;20190;-58
2022/12/03 00:51:24;;;;;;;1.80;1.30;;;21.20;47.40;;;;;;5091010;28;20199;-59
2022/12/03 00:53:54;;;;;;;1.95;1.40;;;21.20;47.50;;;;;;5090987;28;20194;-59
2022/12/03 00:56:26;;;;;;;2.08;1.38;;;21.20;47.40;;;;;;5090735;28;20221;-59
2022/12/03 00:58:56;;;;;;;2.03;1.30;;;21.20;47.40;;;;;;5090585;28;20209;-59
2022/12/03 01:01:29;;;;;;;2.28;1.27;;;21.20;47.40;;;;;;5090742;28;20202;-59
2022/12/03 01:04:00;;;;;;;1.65;1.08;;;21.30;47.50;;;;;;5093548;28;20195;-58
2022/12/03 01:06:30;;;;;;;1.65;1.10;;;21.30;47.40;;;;;;5094778;28;20218;-60
2022/12/03 01:09:01;;;;;;;1.67;1.13;;;21.30;47.40;;;;;;5094825;28;20205;-59
2022/12/03 01:11:41;;;;;;;1.63;1.15;;;21.40;47.40;;;;;;5094638;28;20194;-59
2022/12/03 01:14:13;;;;;;;1.63;1.20;;;21.40;47.40;;;;;;5094375;28;20589;-59
2022/12/03 01:16:46;;;;;;;1.27;1.02;;;21.40;47.40;;;;;;5093845;28;20222;-59
2022/12/03 01:19:18;;;;;;;1.80;1.00;;;21.40;47.40;;;;;;5094235;28;20198;-59
2022/12/03 01:21:50;;;;;;;2.22;1.10;;;21.50;47.40;;;;;;5094283;28;20202;-59
2022/12/03 01:24:21;;;;;;;1.17;1.05;;;21.50;47.40;;;;;;5094164;28;20218;-59
2022/12/03 01:26:52;;;;;;;2.03;1.08;;;21.50;47.40;;;;;;5094109;28;20218;-59
2022/12/03 01:29:23;;;;;;;1.50;1.20;;;21.60;47.40;;;;;;5094213;28;20205;-60
2022/12/03 01:34:42;;;;;;;2.60;1.40;;;21.60;47.40;;;;;;5094214;28;20671;-56
2022/12/03 01:37:13;;;;;;;2.55;1.30;;;21.60;47.30;;;;;;5094173;28;20198;-58
2022/12/03 01:39:43;;;;;;;1.70;1.13;;;21.70;47.40;;;;;;5093807;28;20202;-58
2022/12/03 01:42:19;;;;;;;1.67;1.10;;;21.70;47.40;;;;;;5094011;28;20190;-59
2022/12/03 01:44:54;;;;;;;1.45;1.10;;;21.70;47.40;;;;;;5094284;28;20221;-54
2022/12/03 01:47:31;;;;;;;1.83;1.33;;;21.80;47.20;;;;;;5093920;28;20202;-57
2022/12/03 01:50:06;;;;;;;1.33;0.90;;;21.80;47.20;;;;;;5093877;28;20194;-60
2022/12/03 01:52:39;;;;;;;3.05;1.60;;;21.80;47.20;;;;;;5090302;28;20196;-59
2022/12/03 01:55:17;;;;;;;1.33;1.02;;;21.80;47.10;;;;;;5093314;28;20214;-59
2022/12/03 01:57:51;;;;;;;2.03;1.15;;;21.90;47.20;;;;;;5093282;28;20657;-58
2022/12/03 02:00:23;;;;;;;1.67;1.00;;;21.90;47.10;;;;;;5093470;28;20198;-58
2022/12/03 02:02:58;;;;;;;1.38;1.08;;;21.90;47.10;;;;;;5093676;28;20669;-59
2022/12/03 02:05:30;;;;;;;2.03;1.23;;;21.90;47.10;;;;;;5093230;28;20233;-59
2022/12/03 02:08:01;;;;;;;1.55;1.20;;;22.00;47.10;;;;;;5093130;28;20198;-58
2022/12/03 02:10:34;;;;;;;1.98;0.98;;;22.00;47.10;;;;;;5093328;28;20195;-55
2022/12/03 02:13:07;;;;;;;2.28;1.17;;;22.00;47.10;;;;;;5092932;28;20198;-56
2022/12/03 02:15:39;;;;;;;2.72;1.30;;;22.00;47.00;;;;;;5092830;28;20618;-59
2022/12/03 02:18:13;;;;;;;2.05;1.15;;;22.10;47.00;;;;;;5092234;28;20201;-58
2022/12/03 02:20:48;;;;;;;1.85;0.93;;;22.10;47.00;;;;;;5092925;28;20567;-59
2022/12/03 02:23:35;;;;;;;2.22;1.27;;;22.20;46.90;;;;;;5092852;28;20662;-59
2022/12/03 02:26:08;;;;;;;1.02;0.88;;;22.20;46.80;;;;;;5092551;28;20237;-59
2022/12/03 02:28:39;;;;;;;1.40;1.00;;;22.20;46.90;;;;;;5093784;28;20197;-60
2022/12/03 02:31:09;;;;;;;2.38;1.02;;;22.20;46.70;;;;;;5094099;28;20658;-60
2022/12/03 02:33:40;;;;;;;1.42;1.00;;;22.30;46.70;;;;;;5092246;28;20182;-60
2022/12/03 02:36:11;;;;;;;1.55;0.93;;;22.30;46.60;;;;;;5092931;28;20724;-60
2022/12/03 02:38:43;;;;;;;1.63;0.98;;;22.30;46.60;;;;;;5089753;28;20209;-60
2022/12/03 02:44:01;;;;;;;1.98;1.27;;;22.40;46.60;;;;;;5091827;28;20549;-60
2022/12/03 02:46:32;;;;;;;1.98;0.90;;;22.40;46.50;;;;;;5093369;28;20236;-60
2022/12/03 02:49:04;;;;;;;2.25;1.05;;;22.50;46.40;;;;;;5092762;28;20661;-59
2022/12/03 02:51:35;;;;;;;1.58;0.88;;;22.50;46.40;;;;;;5092313;28;20194;-57
2022/12/03 02:54:06;;;;;;;1.90;1.00;;;22.50;46.20;;;;;;5092484;28;20650;-61
2022/12/03 02:56:39;;;;;;;1.65;1.00;;;22.50;46.20;;;;;;5092220;28;20232;-61
2022/12/03 02:59:10;;;;;;;1.98;1.02;;;22.50;46.20;;;;;;5092447;28;20657;-61
2022/12/03 03:01:41;;;;;;;1.75;1.00;;;22.60;46.10;;;;;;5092213;28;20279;-60
2022/12/03 03:04:12;;;;;;;2.75;1.10;;;22.60;46.00;;;;;;5092354;28;20653;-60
2022/12/03 03:06:43;;;;;;;1.13;0.80;;;22.70;46.20;;;;;;5091889;28;20229;-60
2022/12/03 03:09:14;;;;;;;2.38;1.00;;;22.70;46.30;;;;;;5092019;28;20201;-60
2022/12/03 03:11:46;;;;;;;1.45;0.85;;;22.70;46.30;;;;;;5092004;28;20657;-61
2022/12/03 03:14:19;;;;;;;2.20;0.90;;;22.70;46.10;;;;;;5091939;28;20594;-61
2022/12/03 03:16:54;;;;;;;2.72;1.10;;;22.80;46.20;;;;;;5092291;28;20214;-61
2022/12/03 03:19:27;;;;;;;1.00;0.90;;;22.80;46.80;;;;;;5091774;28;20590;-61
2022/12/03 03:21:58;;;;;;;1.65;0.93;;;22.90;46.10;;;;;;5091708;28;20194;-62
2022/12/03 03:24:28;;;;;;;1.45;1.02;;;22.90;46.00;;;;;;5091556;28;20198;-60
2022/12/03 03:27:01;;;;;;;1.30;0.80;;;22.90;45.90;;;;;;5091392;28;20259;-61
2022/12/03 03:29:32;;;;;;;1.70;1.20;;;23.00;45.80;;;;;;5091962;28;20213;-61
2022/12/03 03:32:05;;;;;;;1.10;0.82;;;23.00;45.70;;;;;;5091882;28;20658;-61
2022/12/03 03:34:36;;;;;;;1.30;0.75;;;23.00;45.50;;;;;;5092272;28;20194;-61
2022/12/03 03:37:06;;;;;;;1.08;0.90;;;23.00;45.40;;;;;;5091939;28;20210;-62
2022/12/03 03:39:37;;;;;;;1.25;0.80;;;23.10;45.50;;;;;;5091583;28;20198;-59
2022/12/03 03:42:10;;;;;;;2.25;0.90;;;23.10;45.50;;;;;;5091462;28;20198;-61
2022/12/03 03:44:43;;;;;;;2.47;0.82;;;23.10;45.30;;;;;;5091392;28;20247;-60
2022/12/03 03:47:15;;;;;;;1.85;0.90;;;23.10;45.10;;;;;;5091602;28;20205;-61
2022/12/03 03:49:46;;;;;;;1.40;0.73;;;23.10;45.20;;;;;;5091730;28;20277;-58
2022/12/03 03:52:17;;;;;;;0.93;0.80;;;23.20;45.30;;;;;;5089994;28;20195;-61
2022/12/03 03:54:48;;;;;;;2.58;0.90;;;23.20;45.50;;;;;;5090395;28;20201;-59
2022/12/03 03:57:21;;;;;;;1.38;0.93;;;23.20;45.40;;;;;;5091511;28;20194;-60
2022/12/03 03:59:51;;;;;;;1.60;0.93;;;23.30;45.50;;;;;;5091653;28;20209;-61
2022/12/03 04:02:23;;;;;;;0.98;0.70;;;23.30;45.40;;;;;;5091641;28;20201;-60
2022/12/03 04:04:54;;;;;;;1.27;0.88;;;23.30;45.40;;;;;;5091587;28;20552;-60
2022/12/03 04:07:25;;;;;;;1.33;0.63;;;23.40;45.30;;;;;;5091427;28;20585;-61
2022/12/03 04:09:56;;;;;;;1.38;0.93;;;23.40;45.30;;;;;;5090421;28;20283;-61
2022/12/03 04:15:15;;;;;;;1.58;0.70;;;23.40;45.00;;;;;;5091106;28;20216;-61
2022/12/03 04:18:41;;;;;;;0.95;0.70;;;23.40;44.60;;;;;;5091321;28;20198;-61
2022/12/03 04:20:36;;;;;;;1.83;0.90;;;23.50;44.40;;;;;;5091273;28;20201;-56
2022/12/03 04:23:06;;;;;;;0.70;0.65;;;23.50;44.40;;;;;;5091680;28;20194;-61
2022/12/03 04:36:38;;;;;;;1.23;0.70;;;23.60;44.50;;;;;;5092031;28;20229;-61
2022/12/03 04:39:09;;;;;;;2.15;0.80;;;23.60;44.60;;;;;;5095208;28;20190;-62
2022/12/03 04:41:40;;;;;;;1.45;1.00;;;23.60;44.60;;;;;;5085968;28;20206;-56
2022/12/03 04:46:59;;;;;;;2.85;1.02;;;23.70;44.40;;;;;;5095281;28;20241;-62
2022/12/03 04:49:30;;;;;;;1.33;0.70;;;23.70;44.20;;;;;;5094833;28;20198;-61
2022/12/03 04:52:00;;;;;;;1.17;0.65;;;23.70;44.00;;;;;;5094864;28;20194;-60
2022/12/03 04:54:31;;;;;;;2.53;1.10;;;23.70;43.90;;;;;;5094723;28;20194;-61
2022/12/03 04:57:02;;;;;;;3.30;0.95;;;23.70;43.90;;;;;;5094359;28;20210;-61
2022/12/03 04:59:35;;;;;;;4.28;0.90;;;23.60;43.80;;;;;;5094291;28;20202;-58
2022/12/03 05:02:06;;;;;;;1.33;0.80;;;23.70;43.80;;;;;;5094500;28;20205;-53
2022/12/03 05:04:37;;;;;;;2.03;0.95;;;23.60;43.80;;;;;;5094576;28;20190;-58
2022/12/03 05:07:08;;;;;;;1.95;0.85;;;23.60;43.80;;;;;;5094197;28;20230;-54
2022/12/03 05:09:39;;;;;;;1.35;0.90;;;23.60;43.90;;;;;;5094882;28;20221;-57
2022/12/03 05:12:09;;;;;;;2.40;1.02;;;23.60;43.90;;;;;;5094411;28;20563;-56
2022/12/03 05:14:42;;;;;;;1.90;0.98;;;23.60;43.80;;;;;;5092832;28;20201;-50
2022/12/03 05:17:13;;;;;;;1.63;0.90;;;23.60;43.80;;;;;;5089004;28;20214;-50
2022/12/03 05:22:30;;;;;;;2.40;1.13;;;23.60;43.80;;;;;;5088532;28;20566;-52
2022/12/03 05:25:01;;;;;;;1.80;0.90;;;23.60;43.70;;;;;;5091501;28;20202;-48
2022/12/03 05:27:31;;;;;;;1.42;0.80;;;23.60;43.60;;;;;;5092922;28;20193;-50
2022/12/03 05:30:04;;;;;;;1.27;0.70;;;23.50;43.60;;;;;;5094393;28;20202;-58
2022/12/03 05:32:35;;;;;;;1.38;0.80;;;23.50;43.60;;;;;;5093171;28;20189;-51
2022/12/03 05:35:05;;;;;;;2.15;0.95;;;23.50;43.60;;;;;;5093367;28;20240;-52
2022/12/03 05:37:36;;;;;;;1.52;0.70;;;23.50;43.60;;;;;;5088538;28;20697;-58
2022/12/03 05:40:08;;;;;;;1.40;0.60;;;23.50;43.70;;;;;;5072419;28;20195;-60
2022/12/03 05:43:00;;;;;;;3.05;0.85;;;23.40;43.70;;;;;;5072751;28;20198;-54
2022/12/03 05:45:34;;;;;;;2.80;0.90;;;23.40;43.80;;;;;;5072721;28;20313;-57
2022/12/03 05:48:06;;;;;;;1.75;0.93;;;23.40;43.70;;;;;;5076529;28;20213;-55
2022/12/03 05:50:38;;;;;;;1.95;1.00;;;23.40;43.70;;;;;;5072962;28;20190;-55
2022/12/03 05:53:10;;;;;;;0.63;0.63;;;23.40;43.80;;;;;;5072890;28;20195;-58
2022/12/03 05:55:40;;;;;;;1.83;0.73;;;23.40;43.80;;;;;;5072547;28;20207;-58
2022/12/03 05:58:11;;;;;;;1.25;0.80;;;23.40;43.80;;;;;;5072252;28;20673;-61
2022/12/03 06:00:44;;;;;;;2.45;0.90;;;23.30;43.80;;;;;;5083958;28;20194;-62
2022/12/03 06:03:15;;;;;;;1.35;0.80;;;23.30;43.90;;;;;;5093695;28;20198;-61
2022/12/03 06:05:45;;;;;;;1.75;0.98;;;23.30;43.80;;;;;;5087110;28;20577;-58
2022/12/03 06:08:16;;;;;;;1.73;0.63;;;23.30;43.80;;;;;;5072915;28;20195;-61
2022/12/03 06:10:47;;;;;;;2.17;0.98;;;23.30;43.90;;;;;;5078598;28;20187;-57
2022/12/03 06:13:18;;;;;;;2.08;0.90;;;23.20;43.90;;;;;;5072236;28;20199;-58
2022/12/03 06:15:51;;;;;;;1.73;0.95;;;23.20;44.00;;;;;;5072001;28;20773;-59
2022/12/03 06:18:22;;;;;;;2.25;0.90;;;23.20;44.50;;;;;;5091185;28;20210;-60
2022/12/03 06:20:52;;;;;;;1.50;1.00;;;23.20;44.00;;;;;;5092608;28;20205;-61
2022/12/03 06:23:23;;;;;;;1.48;0.90;;;23.10;44.00;;;;;;5091778;28;20206;-60
2022/12/03 06:25:54;;;;;;;2.30;0.80;;;23.10;44.10;;;;;;5091962;28;20222;-61
2022/12/03 06:28:24;;;;;;;2.03;0.75;;;23.10;44.10;;;;;;5092620;28;20534;-59
2022/12/03 06:30:57;;;;;;;1.63;0.80;;;23.10;44.00;;;;;;5091609;28;20670;-60
2022/12/03 06:33:28;;;;;;;1.75;0.82;;;23.10;44.10;;;;;;5091867;28;20206;-59
2022/12/03 06:35:58;;;;;;;3.10;0.82;;;23.10;44.10;;;;;;5091592;28;20210;-61
2022/12/03 06:38:29;;;;;;;1.77;0.75;;;23.10;44.10;;;;;;5088800;28;20198;-57
2022/12/03 06:41:00;;;;;;;1.98;1.00;;;23.00;44.00;;;;;;5092104;28;20190;-60
2022/12/03 06:43:31;;;;;;;1.60;0.90;;;23.00;44.10;;;;;;5092287;28;20560;-60
2022/12/03 06:46:03;;;;;;;1.77;0.70;;;23.00;44.10;;;;;;5086512;28;20752;-54
2022/12/03 06:48:34;;;;;;;1.15;0.77;;;23.00;44.10;;;;;;5071742;28;20217;-55
2022/12/03 06:51:05;;;;;;;1.83;0.80;;;22.90;44.10;;;;;;5078943;28;20195;-57
2022/12/03 06:53:35;;;;;;;1.90;0.90;;;22.90;44.10;;;;;;5072511;28;20195;-56
2022/12/03 06:56:06;;;;;;;2.38;0.88;;;22.90;44.20;;;;;;5072395;28;20218;-57
2022/12/03 06:58:37;;;;;;;1.92;0.90;;;22.90;44.20;;;;;;5072044;28;20202;-58
2022/12/03 07:01:10;;;;;;;1.83;1.00;;;22.90;44.90;;;;;;5090539;28;20208;-54
2022/12/03 07:03:40;;;;;;;2.25;1.00;;;22.80;44.30;;;;;;5091667;28;20190;-60
2022/12/03 07:06:11;;;;;;;1.95;0.80;;;22.80;44.40;;;;;;5092000;28;20222;-57
2022/12/03 07:08:42;;;;;;;2.45;0.90;;;22.80;44.40;;;;;;5092372;28;20201;-60
2022/12/03 07:13:56;;;;;;;1.13;0.77;;;22.70;44.40;;;;;;5091325;28;20272;-62
2022/12/03 07:16:29;;;;;;;1.17;0.57;;;22.70;44.50;;;;;;5092098;28;20221;-62
2022/12/03 07:19:00;;;;;;;1.67;0.90;;;22.80;44.50;;;;;;5091953;28;20406;-61
2022/12/03 07:21:30;;;;;;;3.30;1.10;;;22.70;44.50;;;;;;5091639;28;20567;-58
2022/12/03 07:24:01;;;;;;;2.10;0.70;;;22.70;44.40;;;;;;5091387;28;20650;-61
2022/12/03 07:26:32;;;;;;;2.50;0.82;;;22.70;44.40;;;;;;5091539;28;20229;-58
2022/12/03 07:29:03;;;;;;;2.85;0.70;;;22.60;44.50;;;;;;5091574;28;20194;-61
2022/12/03 07:31:35;;;;;;;1.08;0.75;;;22.70;44.60;;;;;;5091577;28;20208;-60
2022/12/03 07:34:06;;;;;;;1.45;0.90;;;22.60;44.60;;;;;;5091604;28;20688;-62
2022/12/03 07:36:37;;;;;;;1.77;0.70;;;22.60;44.60;;;;;;5091811;28;20586;-60
2022/12/03 07:39:08;;;;;;;1.40;0.88;;;22.60;44.70;;;;;;5092038;28;20198;-59
2022/12/03 07:41:38;;;;;;;1.35;0.77;;;22.60;44.70;;;;;;5091291;28;20194;-61
2022/12/03 07:44:09;;;;;;;0.55;0.52;;;22.60;44.70;;;;;;5091406;28;20209;-62
2022/12/03 07:46:42;;;;;;;1.75;0.90;;;22.50;44.70;;;;;;5091186;28;20221;-62
2022/12/03 07:49:13;;;;;;;1.67;0.80;;;22.50;44.70;;;;;;5091396;28;20193;-61
2022/12/03 07:51:52;;;;;;;2.15;0.70;;;22.50;44.70;;;;;;5080846;28;20195;-61
2022/12/03 07:54:23;;;;;;;1.88;0.80;;;22.50;44.80;;;;;;5071395;28;20229;-61
2022/12/03 07:56:54;;;;;;;2.15;0.60;;;22.50;44.80;;;;;;5071526;28;20230;-61
2022/12/03 07:59:24;;;;;;;1.77;0.85;;;22.50;44.80;;;;;;5075962;28;20208;-61
2022/12/03 08:01:57;;;;;;;1.70;0.90;;;22.50;44.80;;;;;;5091185;28;20664;-62
2022/12/03 08:04:28;;;;;;;1.42;0.90;;;22.50;44.80;;;;;;5091108;28;20201;-53
2022/12/03 08:06:58;;;;;;;1.05;0.70;;;22.50;44.80;;;;;;5090838;28;20245;-61
2022/12/03 08:09:30;;;;;;;1.48;0.57;;;22.40;44.80;;;;;;5091042;28;20194;-61
2022/12/03 08:12:18;;;;;;;1.50;0.70;;;22.40;44.80;;;;;;5093056;28;20243;-60
2022/12/03 08:14:49;;;;;;;1.17;0.80;;;22.40;44.90;;;;;;5095385;28;20191;-59
2022/12/03 08:17:21;;;;;;;1.20;0.75;;;22.40;44.90;;;;;;5094888;28;20217;-61
2022/12/03 08:19:54;;;;;;;1.55;0.75;;;22.40;44.90;;;;;;5095229;28;20197;-61
2022/12/03 08:22:25;;;;;;;1.38;0.68;;;22.40;45.00;;;;;;5095009;28;20204;-60
2022/12/03 08:24:56;;;;;;;1.35;0.70;;;22.30;45.00;;;;;;5095462;28;20200;-61
2022/12/03 08:27:26;;;;;;;1.10;0.68;;;22.30;45.00;;;;;;5095592;28;20232;-61
2022/12/03 08:30:03;;;;;;;0.73;0.60;;;22.30;45.00;;;;;;5083525;28;20186;-61
2022/12/03 08:32:36;;;;;;;0.90;0.63;;;22.30;45.00;;;;;;5075292;28;20199;-61
2022/12/03 08:35:14;;;;;;;0.98;0.60;;;22.30;45.00;;;;;;5075043;28;20198;-60
2022/12/03 08:37:56;;;;;;;2.22;0.80;;;22.30;45.00;;;;;;5075060;28;20194;-61
2022/12/03 08:40:36;;;;;;;2.83;1.10;;;22.30;45.10;;;;;;5086861;28;20588;-60
2022/12/03 08:43:15;;;;;;;1.30;0.70;;;22.20;45.10;;;;;;5094224;28;20193;-60
2022/12/03 08:45:45;;;;;;;1.95;0.90;;;22.20;45.10;;;;;;5094905;28;20601;-60
2022/12/03 08:48:35;;;;;;;2.45;0.98;;;22.20;45.20;;;;;;5093132;28;20233;-60
2022/12/03 08:51:20;;;;;;;1.90;0.95;;;22.20;45.90;;;;;;5094082;28;20194;-60
2022/12/03 08:53:52;;;;;;;1.35;0.68;;;22.20;45.20;;;;;;5093649;28;20187;-60
2022/12/03 08:56:24;;;;;;;1.77;0.98;;;22.20;45.30;;;;;;5093457;28;20218;-61
2022/12/03 08:58:57;;;;;;;2.22;0.98;;;22.10;45.30;;;;;;5089301;28;20191;-59
2022/12/03 09:01:39;;;;;;;1.52;0.85;;;22.10;45.30;;;;;;5094200;28;20646;-51
2022/12/03 09:04:28;;;;;;;1.73;0.70;;;22.10;45.30;;;;;;5093073;28;20256;-60
2022/12/03 09:06:59;;;;;;;1.95;0.85;;;22.10;45.30;;;;;;5093969;28;20226;-60
2022/12/03 09:09:30;;;;;;;1.23;0.70;;;22.10;45.30;;;;;;5093976;28;20190;-59
2022/12/03 09:12:01;;;;;;;1.60;0.80;;;22.10;45.30;;;;;;5093750;28;20198;-58
2022/12/03 09:14:31;;;;;;;1.77;0.80;;;22.00;45.30;;;;;;5092972;28;20190;-59
2022/12/03 09:17:02;;;;;;;1.20;0.80;;;22.00;45.40;;;;;;5093204;28;20221;-60
2022/12/03 09:19:35;;;;;;;1.45;0.57;;;22.00;46.00;;;;;;5092856;28;20198;-61
2022/12/03 09:22:05;;;;;;;1.10;0.70;;;22.00;45.40;;;;;;5093672;28;20276;-54
2022/12/03 09:24:36;;;;;;;1.30;0.80;;;22.00;45.40;;;;;;5092305;28;20187;-58
2022/12/03 09:27:07;;;;;;;1.30;0.90;;;22.00;45.50;;;;;;5092824;28;20697;-60
2022/12/03 09:29:38;;;;;;;1.50;0.80;;;21.90;46.00;;;;;;5092822;28;20229;-56
2022/12/03 09:32:09;;;;;;;1.30;0.70;;;21.90;45.50;;;;;;5093794;28;20198;-61
2022/12/03 09:34:41;;;;;;;1.25;0.57;;;21.90;45.50;;;;;;5083521;28;20191;-61
2022/12/03 09:37:12;;;;;;;0.88;0.70;;;21.90;45.50;;;;;;5085360;28;20221;-61
2022/12/03 09:39:43;;;;;;;1.15;0.70;;;21.90;45.50;;;;;;5083098;28;20195;-60
2022/12/03 09:42:14;;;;;;;1.30;0.80;;;21.90;45.50;;;;;;5072807;28;20558;-56
2022/12/03 09:44:45;;;;;;;1.42;0.98;;;21.90;45.50;;;;;;5081879;28;20202;-57
2022/12/03 09:47:16;;;;;;;2.17;1.00;;;21.90;45.50;;;;;;5073787;28;20230;-56
2022/12/03 09:49:49;;;;;;;1.23;0.63;;;21.80;45.50;;;;;;5072736;28;20195;-54
2022/12/03 09:52:24;;;;;;;0.77;0.75;;;21.80;45.60;;;;;;5073367;28;20209;-59
2022/12/03 09:54:55;;;;;;;1.13;0.70;;;21.80;45.60;;;;;;5075692;28;20197;-53
2022/12/03 09:57:26;;;;;;;1.90;0.95;;;21.80;45.60;;;;;;5091320;28;20221;-54
2022/12/03 10:00:01;;;;;;;1.65;0.73;;;21.70;45.60;;;;;;5092536;28;20205;-56
2022/12/03 10:02:33;;;;;;;1.20;0.77;;;21.70;45.60;;;;;;5074797;28;20225;-59
2022/12/03 10:05:05;;;;;;;1.65;1.00;;;21.70;45.70;;;;;;5083761;28;20220;-55
2022/12/03 10:07:36;;;;;;;0.95;0.63;;;21.70;45.80;;;;;;5092096;28;20222;-50
2022/12/03 10:10:08;;;;;;;1.88;0.85;;;21.70;45.80;;;;;;5092783;28;20201;-54
2022/12/03 10:12:39;;;;;;;7.60;1.00;;;21.70;45.80;;;;;;5092562;28;20190;-54
2022/12/03 10:15:14;;;;;;;6.20;1.30;;;21.70;46.00;;;;;;5092434;28;20201;-54
2022/12/03 10:17:45;;;;;;;4.28;1.25;;;21.70;46.60;;;;;;5092816;28;20194;-59
2022/12/03 10:20:20;;;;;;;4.47;1.48;;;21.70;47.20;;;;;;5093120;28;20198;-55
2022/12/03 10:22:53;;;;;;;6.22;1.50;;;21.70;47.50;;;;;;5093075;28;20205;-58
2022/12/03 10:25:24;;;;;;;8.00;1.45;;;21.70;47.80;;;;;;5092903;28;20198;-58
2022/12/03 10:28:01;;;;;;;5.10;1.17;;;21.70;47.90;;;;;;5092233;28;20229;-60
2022/12/03 10:30:31;;;;;;;4.43;1.65;;;21.70;47.90;;;;;;5092507;28;20210;-51
2022/12/03 10:33:12;;;;;;;4.47;1.60;;;21.70;47.90;;;;;;5090009;28;20193;-56
2022/12/03 10:35:45;;;;;;;4.20;1.30;;;21.70;48.00;;;;;;5072474;28;20221;-58
2022/12/03 10:38:23;;;;;;;2.97;1.20;;;21.70;47.90;;;;;;5072248;28;20195;-60
2022/12/03 10:40:54;;;;;;;3.42;1.35;;;21.70;47.90;;;;;;5072203;28;20191;-55
2022/12/03 10:43:25;;;;;;;3.70;1.63;;;21.70;48.10;;;;;;5072485;28;20194;-58
2022/12/03 10:46:14;;;;;;;4.90;1.75;;;21.60;48.20;;;;;;5072910;28;20249;-58
2022/12/03 10:48:45;;;;;;;4.10;1.50;;;21.60;48.30;;;;;;5072376;28;20310;-60
2022/12/03 10:51:22;;;;;;;4.28;2.25;;;21.60;48.20;;;;;;5072286;28;20647;-60
2022/12/03 10:53:53;;;;;;;3.85;1.88;;;21.60;48.50;;;;;;5072514;28;20198;-60
2022/12/03 10:56:28;;;;;;;3.67;1.55;;;21.60;48.60;;;;;;5071985;28;20223;-58
2022/12/03 10:58:59;;;;;;;3.47;1.27;;;21.60;48.50;;;;;;5074613;28;20197;-60
2022/12/03 11:01:29;;;;;;;3.72;1.63;;;21.60;48.40;;;;;;5092255;28;20190;-61
2022/12/03 11:04:05;;;;;;;3.97;1.50;;;21.60;48.40;;;;;;5092289;28;20201;-56
2022/12/03 11:06:38;;;;;;;3.25;1.60;;;21.50;48.30;;;;;;5092050;28;20213;-59
2022/12/03 11:09:18;;;;;;;4.43;1.85;;;21.50;48.20;;;;;;5092546;28;20230;-56
2022/12/03 11:11:49;;;;;;;5.38;2.35;;;21.50;48.20;;;;;;5092316;28;20202;-62
2022/12/03 11:15:07;;;;;;;3.92;2.10;;;21.50;48.40;;;;;;5092322;28;20194;-61
2022/12/03 11:17:48;;;;;;;3.00;1.75;;;21.40;48.50;;;;;;5009793;28;20236;-57
2022/12/03 11:20:49;;;;;;;3.20;2.03;;;21.40;48.70;;;;;;5083044;28;20198;-61
2022/12/03 11:23:59;;;;;;;3.28;2.00;;;21.40;48.80;;;;;;5085744;28;20198;-58
2022/12/03 11:27:06;;;;;;;3.55;2.05;;;21.40;48.80;;;;;;5091799;28;20215;-61
2022/12/03 11:29:52;;;;;;;3.03;2.10;;;21.40;48.70;;;;;;5091950;28;20581;-60
2022/12/03 11:33:09;;;;;;;3.50;1.70;;;21.40;48.70;;;;;;5091854;28;20194;-61
2022/12/03 11:36:04;;;;;;;2.60;1.80;;;21.30;48.60;;;;;;5091908;28;20218;-62
2022/12/03 11:38:51;;;;;;;3.53;2.10;;;21.30;48.60;;;;;;5092125;28;20195;-62
2022/12/03 11:41:24;;;;;;;3.05;2.08;;;21.30;48.50;;;;;;5091574;28;20194;-57
2022/12/03 11:44:30;;;;;;;4.80;2.30;;;21.20;48.50;;;;;;5091565;28;20205;-59
2022/12/03 11:47:14;;;;;;;4.60;2.00;;;21.20;48.50;;;;;;5079239;28;20258;-57
2022/12/03 11:49:51;;;;;;;4.72;2.00;;;21.10;48.40;;;;;;5092125;28;20186;-62
2022/12/03 11:52:25;;;;;;;2.42;1.70;;;21.10;48.40;;;;;;5091754;28;20201;-61
2022/12/03 11:55:01;;;;;;;3.35;1.63;;;21.10;48.50;;;;;;5091682;28;20224;-62
2022/12/03 11:57:37;;;;;;;5.55;2.03;;;21.00;48.40;;;;;;5090736;28;20217;-55
2022/12/03 12:00:17;;;;;;;2.75;1.50;;;21.10;48.50;;;;;;5091556;28;20224;-60
2022/12/03 12:02:47;;;;;;;2.47;1.60;;;21.00;48.50;;;;;;5091865;28;20202;-55
2022/12/03 12:05:35;;;;;;;3.08;1.77;;;21.00;48.50;;;;;;5091448;28;20197;-61
2022/12/03 12:08:06;;;;;;;2.47;1.75;;;20.90;48.40;;;;;;5092786;28;20221;-61
2022/12/03 12:10:48;;;;;;;3.53;1.77;;;20.90;48.40;;;;;;5088295;28;20186;-62
2022/12/03 12:13:53;;;;;;;2.95;1.73;;;20.90;48.40;;;;;;5071097;28;20195;-62
2022/12/03 12:16:41;;;;;;;2.40;1.65;;;20.90;48.40;;;;;;5071022;28;20218;-61
2022/12/03 12:19:32;;;;;;;3.20;1.70;;;20.90;48.40;;;;;;5071314;28;20436;-57
2022/12/03 12:22:21;;;;;;;4.72;2.25;;;20.90;48.30;;;;;;5071358;28;20195;-61
2022/12/03 12:24:53;;;;;;;2.53;1.55;;;20.80;48.40;;;;;;5071164;28;20194;-59
2022/12/03 12:27:31;;;;;;;2.05;1.50;;;20.80;48.40;;;;;;5088312;28;20210;-53
2022/12/03 12:30:03;;;;;;;4.22;1.48;;;20.80;48.40;;;;;;5091465;28;20568;-58
2022/12/03 12:32:35;;;;;;;3.92;1.70;;;20.80;48.40;;;;;;5091513;28;20199;-60
2022/12/03 12:35:17;;;;;;;2.50;1.58;;;20.70;48.40;;;;;;5091320;28;20194;-59
2022/12/03 12:37:52;;;;;;;2.90;1.73;;;20.70;48.40;;;;;;5091366;28;20198;-57
2022/12/03 12:40:25;;;;;;;2.75;1.63;;;20.70;48.40;;;;;;5091359;28;20672;-59
2022/12/03 12:43:00;;;;;;;1.67;1.20;;;20.70;49.00;;;;;;5091260;28;20240;-55
2022/12/03 12:45:32;;;;;;;2.10;1.52;;;20.70;48.40;;;;;;5091681;28;20202;-48
2022/12/03 12:48:12;;;;;;;2.70;1.45;;;20.70;48.40;;;;;;5090889;28;20214;-60
2022/12/03 12:50:43;;;;;;;2.08;1.30;;;20.70;48.40;;;;;;5090549;28;20197;-58
2022/12/03 12:53:22;;;;;;;2.97;1.55;;;20.70;48.40;;;;;;5090757;28;20201;-58
2022/12/03 12:55:58;;;;;;;2.47;1.65;;;20.60;48.30;;;;;;5091045;28;20214;-58
2022/12/03 12:58:33;;;;;;;2.17;1.25;;;20.60;48.40;;;;;;5093096;28;20194;-55
2022/12/03 13:01:45;;;;;;;2.13;1.50;;;20.60;48.40;;;;;;5094722;28;20669;-58
2022/12/03 13:04:17;;;;;;;3.22;1.40;;;20.50;48.40;;;;;;5094479;28;20190;-59
2022/12/03 13:06:48;;;;;;;2.20;1.38;;;20.50;48.40;;;;;;5094643;28;20218;-58
2022/12/03 13:09:21;;;;;;;3.08;1.40;;;20.50;48.40;;;;;;5094756;28;20236;-56
2022/12/03 13:11:55;;;;;;;3.22;1.27;;;20.50;48.40;;;;;;5094585;28;20700;-60
2022/12/03 13:14:32;;;;;;;2.08;1.27;;;20.50;48.50;;;;;;5094439;28;20202;-60
2022/12/03 13:17:12;;;;;;;1.65;1.13;;;20.50;48.50;;;;;;5094418;28;20210;-59
2022/12/03 13:19:43;;;;;;;2.05;1.25;;;20.50;48.50;;;;;;5094469;28;20672;-57
2022/12/03 13:22:17;;;;;;;2.15;1.30;;;20.40;48.40;;;;;;5094460;28;20194;-57
2022/12/03 13:24:49;;;;;;;1.85;1.00;;;20.40;48.40;;;;;;5094130;28;20201;-59
2022/12/03 13:27:28;;;;;;;2.20;1.50;;;20.40;48.40;;;;;;5093729;28;20639;-57
2022/12/03 13:30:04;;;;;;;1.65;1.20;;;20.40;48.40;;;;;;5093827;28;20248;-60
2022/12/03 13:32:35;;;;;;;1.75;1.25;;;20.40;48.40;;;;;;5094179;28;20204;-60
2022/12/03 13:35:08;;;;;;;2.25;1.20;;;20.40;48.40;;;;;;5094290;28;20248;-59
2022/12/03 13:37:40;;;;;;;2.20;1.30;;;20.30;49.00;;;;;;5094488;28;20222;-63
2022/12/03 13:40:22;;;;;;;1.85;1.13;;;20.30;48.40;;;;;;5094084;28;20565;-63
2022/12/03 13:42:53;;;;;;;2.05;1.20;;;20.30;48.40;;;;;;5093984;28;20205;-62
2022/12/03 13:45:37;;;;;;;1.42;1.08;;;20.30;48.40;;;;;;5094513;28;20209;-59
2022/12/03 13:48:20;;;;;;;1.73;1.27;;;20.20;48.40;;;;;;5093980;28;20218;-58
2022/12/03 13:50:52;;;;;;;2.42;1.15;;;20.20;48.40;;;;;;5093808;28;20275;-57